Time;durP1;ratioP1;P1;durP2;ratioP2;P2;SDS_P1;SDS_P2;PMS_P1;PMS_P2;Temp;Humidity;BMP_temperature;BMP_pressure;BME280_temperature;BME280_humidity;BME280_pressure;Samples;Min_cycle;Max_cycle;Signal;HPM_P1;HPM_P2
2022/10/31 00:00:43;;;;;;;;;;;;;;;13.27;58.18;95688.63;5033842;28;1021;-58
2022/10/31 00:03:09;;;;;;;;;;;;;;;13.29;58.10;95686.63;5033531;28;1097;-58
2022/10/31 00:05:35;;;;;;;;;;;;;;;13.21;58.33;95689.28;5033810;28;974;-58
2022/10/31 00:08:01;;;;;;;;;;;;;;;13.34;57.85;95697.75;5033582;28;1100;-58
2022/10/31 00:10:27;;;;;;;;;;;;;;;13.13;58.06;95689.25;5033399;28;1058;-58
2022/10/31 00:12:54;;;;;;;;;;;;;;;13.02;58.46;95687.72;5033397;28;938;-58
2022/10/31 00:15:20;;;;;;;;;;;;;;;12.98;58.67;95691.75;5033544;28;1048;-58
2022/10/31 00:17:46;;;;;;;;;;;;;;;13.00;58.63;95695.09;5033164;28;1902;-58
2022/10/31 00:20:12;;;;;;;;;;;;;;;12.84;59.10;95694.06;5033423;28;1062;-58
2022/10/31 00:22:38;;;;;;;;;;;;;;;12.66;59.76;95686.09;5033379;28;1006;-58
2022/10/31 00:25:04;;;;;;;;;;;;;;;12.75;59.63;95688.78;5033264;28;1050;-58
2022/10/31 00:27:30;;;;;;;;;;;;;;;12.80;59.42;95691.84;5033079;28;1050;-58
2022/10/31 00:29:56;;;;;;;;;;;;;;;12.79;59.42;95690.16;5037131;28;1062;-58
2022/10/31 00:32:22;;;;;;;;;;;;;;;12.93;58.90;95689.53;5053015;28;1117;-58
2022/10/31 00:34:48;;;;;;;;;;;;;;;12.82;59.02;95682.59;5053041;28;1132;-58
2022/10/31 00:37:14;;;;;;;;;;;;;;;12.67;59.58;95677.03;5052990;28;1915;-58
2022/10/31 00:39:40;;;;;;;;;;;;;;;12.82;59.21;95679.94;5052961;28;1249;-58
2022/10/31 00:42:06;;;;;;;;;;;;;;;12.74;59.38;95676.38;5052938;28;970;-58
2022/10/31 00:44:32;;;;;;;;;;;;;;;12.76;59.59;95677.06;5053158;28;1049;-58
2022/10/31 00:46:58;;;;;;;;;;;;;;;12.88;58.82;95678.44;5053141;28;1058;-58
2022/10/31 00:49:24;;;;;;;;;;;;;;;12.81;59.01;95672.06;5053023;28;1022;-58
2022/10/31 00:51:50;;;;;;;;;;;;;;;12.68;59.32;95669.81;5051147;28;1144;-58
2022/10/31 00:54:16;;;;;;;;;;;;;;;12.67;59.46;95676.19;5032982;28;1062;-58
2022/10/31 00:56:42;;;;;;;;;;;;;;;12.84;58.87;95679.78;5032893;28;1983;-58
2022/10/31 00:59:08;;;;;;;;;;;;;;;12.63;58.96;95680.19;5032919;28;1046;-58
2022/10/31 01:01:34;;;;;;;;;;;;;;;12.45;59.62;95678.44;5032893;28;1066;-58
2022/10/31 01:04:00;;;;;;;;;;;;;;;12.41;59.96;95681.63;5033115;28;975;-58
2022/10/31 01:06:26;;;;;;;;;;;;;;;12.48;59.90;95698.72;5033314;28;1017;-58
2022/10/31 01:08:52;;;;;;;;;;;;;;;12.38;59.95;95687.28;5033922;28;970;-58
2022/10/31 01:11:21;;;;;;;;;;;;;;;12.38;59.94;95687.28;5036629;28;1056;-58
2022/10/31 01:13:49;;;;;;;;;;;;;;;12.45;59.88;95689.16;5019122;28;1046;-58
2022/10/31 01:16:17;;;;;;;;;;;;;;;12.41;60.07;95690.50;5036388;28;1935;-58
2022/10/31 01:18:43;;;;;;;;;;;;;;;12.26;60.10;95682.19;5036778;28;961;-58
2022/10/31 01:21:11;;;;;;;;;;;;;;;12.16;60.19;95688.66;5036649;28;963;-58
2022/10/31 01:23:37;;;;;;;;;;;;;;;12.23;60.26;95685.16;5036596;28;970;-58
2022/10/31 01:26:06;;;;;;;;;;;;;;;12.15;60.30;95689.66;5036429;28;994;-58
2022/10/31 01:28:33;;;;;;;;;;;;;;;12.00;60.95;95687.53;5036264;28;1054;-58
2022/10/31 01:31:06;;;;;;;;;;;;;;;12.08;60.67;95697.47;5048845;28;1108;-58
2022/10/31 01:33:33;;;;;;;;;;;;;;;12.17;60.57;95685.81;5056309;28;965;-58
2022/10/31 01:35:59;;;;;;;;;;;;;;;12.16;60.59;95681.47;5038584;28;1985;-58
2022/10/31 01:38:25;;;;;;;;;;;;;;;12.14;60.88;95683.47;5056053;28;1077;-58
2022/10/31 01:40:52;;;;;;;;;;;;;;;12.04;60.76;95678.19;5055953;28;1261;-58
2022/10/31 01:43:18;;;;;;;;;;;;;;;11.97;60.99;95685.19;5055943;28;1050;-58
2022/10/31 01:45:46;;;;;;;;;;;;;;;12.07;60.94;95685.91;5056213;28;1037;-58
2022/10/31 01:48:15;;;;;;;;;;;;;;;12.11;60.94;95681.09;5056076;28;1044;-58
2022/10/31 01:50:42;;;;;;;;;;;;;;;12.00;61.30;95686.72;5055415;28;1061;-58
2022/10/31 01:53:10;;;;;;;;;;;;;;;12.00;61.06;95682.19;5043170;28;1207;-58
2022/10/31 01:55:41;;;;;;;;;;;;;;;12.05;60.81;95684.41;5035838;28;1988;-58
2022/10/31 01:58:10;;;;;;;;;;;;;;;12.01;60.77;95685.69;5035990;28;1128;-58
2022/10/31 02:00:36;;;;;;;;;;;;;;;11.98;61.02;95686.84;5035889;28;1229;-58
2022/10/31 02:03:02;;;;;;;;;;;;;;;11.91;60.97;95691.16;5035896;28;986;-58
2022/10/31 02:05:29;;;;;;;;;;;;;;;11.96;61.00;95688.03;5035579;28;1113;-58
2022/10/31 02:07:58;;;;;;;;;;;;;;;12.04;60.97;95688.06;5018109;28;970;-58
2022/10/31 02:10:24;;;;;;;;;;;;;;;11.99;60.97;95685.88;5035778;28;993;-58
2022/10/31 02:12:53;;;;;;;;;;;;;;;11.87;61.35;95698.63;5035833;28;1053;-58
2022/10/31 02:15:19;;;;;;;;;;;;;;;11.84;61.70;95695.44;5035576;28;1053;-58
2022/10/31 02:17:45;;;;;;;;;;;;;;;11.96;61.26;95693.38;5035228;28;1910;-58
2022/10/31 02:20:15;;;;;;;;;;;;;;;11.95;61.47;95683.66;5035216;28;1017;-58
2022/10/31 02:22:43;;;;;;;;;;;;;;;11.97;61.83;95690.56;5035319;28;1112;-58
2022/10/31 02:25:13;;;;;;;;;;;;;;;12.13;61.17;95689.81;5017860;28;1058;-58
2022/10/31 02:27:59;;;;;;;;;;;;;;;12.10;61.42;95690.13;5035487;28;994;-58
2022/10/31 02:30:31;;;;;;;;;;;;;;;12.14;61.49;95691.50;5042792;28;1100;-58
2022/10/31 02:33:01;;;;;;;;;;;;;;;12.14;61.66;95683.47;5055148;28;1037;-58
2022/10/31 02:35:45;;;;;;;;;;;;;;;12.17;61.91;95685.81;5055233;28;1057;-58
2022/10/31 02:38:20;;;;;;;;;;;;;;;12.21;62.09;95673.78;5054905;28;1124;-58
2022/10/31 02:41:07;;;;;;;;;;;;;;;12.16;62.17;95677.94;5054948;28;1245;-58
2022/10/31 02:43:43;;;;;;;;;;;;;;;12.19;62.06;95680.31;5054396;28;1244;-58
2022/10/31 02:46:09;;;;;;;;;;;;;;;12.07;62.50;95679.72;5055126;28;1061;-58
2022/10/31 02:48:37;;;;;;;;;;;;;;;12.10;62.57;95688.28;5054775;28;1104;-58
2022/10/31 02:51:04;;;;;;;;;;;;;;;12.02;62.68;95674.81;5054861;28;969;-58
2022/10/31 02:53:33;;;;;;;;;;;;;;;12.02;62.68;95674.00;5039021;28;1132;-58
2022/10/31 02:56:12;;;;;;;;;;;;;;;12.10;62.59;95674.03;5034683;28;1910;-58
2022/10/31 02:58:42;;;;;;;;;;;;;;;12.01;62.67;95678.50;5035170;28;1022;-58
2022/10/31 03:01:27;;;;;;;;;;;;;;;12.08;62.51;95673.34;5034696;28;1066;-58
2022/10/31 03:04:02;;;;;;;;;;;;;;;11.91;63.25;95686.66;5034617;28;1089;-58
2022/10/31 03:06:43;;;;;;;;;;;;;;;11.93;62.97;95691.00;5034404;28;1328;-58
2022/10/31 03:09:09;;;;;;;;;;;;;;;12.05;62.64;95687.91;5034711;28;1046;-58
2022/10/31 03:11:42;;;;;;;;;;;;;;;12.02;62.75;95700.78;5034639;28;1049;-58
2022/10/31 03:14:17;;;;;;;;;;;;;;;12.05;62.83;95695.13;5034602;28;1100;-58
2022/10/31 03:16:50;;;;;;;;;;;;;;;12.05;62.53;95695.13;5034165;28;1910;-58
2022/10/31 03:19:16;;;;;;;;;;;;;;;12.03;62.81;95699.81;5034553;28;1156;-58
2022/10/31 03:22:08;;;;;;;;;;;;;;;12.03;62.61;95703.31;5016770;28;1045;-58
2022/10/31 03:24:37;;;;;;;;;;;;;;;12.05;62.60;95708.53;5011008;28;1423;-58
2022/10/31 03:27:05;;;;;;;;;;;;;;;11.85;62.90;95705.97;5034215;28;1117;-58
2022/10/31 03:29:34;;;;;;;;;;;;;;;11.53;63.98;95709.22;5034272;28;1053;-58
2022/10/31 03:32:03;;;;;;;;;;;;;;;11.43;64.31;95709.31;5053540;28;1139;-58
2022/10/31 03:34:30;;;;;;;;;;;;;;;11.57;63.60;95707.91;5054084;28;1055;-58
2022/10/31 03:36:59;;;;;;;;;;;;;;;11.83;62.95;95710.66;5053976;28;1914;-58
2022/10/31 03:39:26;;;;;;;;;;;;;;;11.96;62.49;95704.94;5053814;28;1257;-58
2022/10/31 03:42:02;;;;;;;;;;;;;;;12.03;62.48;95711.34;5053769;28;1058;-58
2022/10/31 03:44:29;;;;;;;;;;;;;;;11.95;62.82;95714.00;5053718;28;1058;-58
2022/10/31 03:46:55;;;;;;;;;;;;;;;11.93;62.88;95721.31;5053959;28;998;-58
2022/10/31 03:49:21;;;;;;;;;;;;;;;11.83;63.40;95721.38;5053791;28;1085;-58
2022/10/31 03:51:50;;;;;;;;;;;;;;;11.90;63.17;95708.25;5052231;28;1139;-58
2022/10/31 03:54:19;;;;;;;;;;;;;;;11.87;63.33;95712.03;5033660;28;990;-58
2022/10/31 03:56:52;;;;;;;;;;;;;;;11.95;62.68;95718.47;5033546;28;1902;-58
2022/10/31 03:59:23;;;;;;;;;;;;;;;12.01;62.55;95720.53;5016240;28;970;-58
2022/10/31 04:01:51;;;;;;;;;;;;;;;11.92;62.84;95730.38;5033771;28;1066;-58
2022/10/31 04:04:18;;;;;;;;;;;;;;;11.91;62.94;95724.19;5033466;28;1046;-58
2022/10/31 04:06:45;;;;;;;;;;;;;;;12.00;63.03;95726.91;5033549;28;1029;-58
2022/10/31 04:09:12;;;;;;;;;;;;;;;11.97;63.33;95729.88;5033310;28;1045;-58
2022/10/31 04:11:44;;;;;;;;;;;;;;;11.94;63.26;95728.38;5033663;28;1140;-58
2022/10/31 04:14:11;;;;;;;;;;;;;;;11.93;63.43;95725.84;5033641;28;1010;-58
2022/10/31 04:16:39;;;;;;;;;;;;;;;11.91;63.36;95740.25;5033381;28;1977;-58
2022/10/31 04:19:05;;;;;;;;;;;;;;;11.89;63.40;95734.22;5033371;28;1070;-58
2022/10/31 04:21:31;;;;;;;;;;;;;;;11.91;63.27;95734.03;5033231;28;1029;-58
2022/10/31 04:23:57;;;;;;;;;;;;;;;11.97;63.31;95741.47;5033304;28;1310;-58
2022/10/31 04:26:24;;;;;;;;;;;;;;;11.96;63.49;95741.63;5033172;28;1046;-58
2022/10/31 04:28:50;;;;;;;;;;;;;;;11.98;63.59;95748.50;5033179;28;1113;-58
2022/10/31 04:31:16;;;;;;;;;;;;;;;12.07;63.44;95744.06;5047809;28;1077;-58
2022/10/31 04:33:42;;;;;;;;;;;;;;;12.28;63.37;95751.75;5053113;28;1062;-58
2022/10/31 04:36:08;;;;;;;;;;;;;;;12.24;63.07;95747.69;5053025;28;1910;-58
2022/10/31 04:38:34;;;;;;;;;;;;;;;12.15;63.48;95748.63;5052962;28;969;-58
2022/10/31 04:41:01;;;;;;;;;;;;;;;12.10;64.06;95749.94;5052854;28;1245;-58
2022/10/31 04:43:26;;;;;;;;;;;;;;;12.21;63.95;95756.88;5053292;28;1045;-58
2022/10/31 04:45:53;;;;;;;;;;;;;;;12.27;63.62;95748.22;5057306;28;1025;-59
2022/10/31 04:48:19;;;;;;;;;;;;;;;12.24;63.80;95755.75;5057110;28;1053;-58
2022/10/31 04:50:45;;;;;;;;;;;;;;;12.20;63.76;95760.56;5057138;28;946;-59
2022/10/31 04:53:11;;;;;;;;;;;;;;;12.09;64.06;95758.97;5043903;28;1191;-58
2022/10/31 04:55:37;;;;;;;;;;;;;;;12.09;64.25;95753.63;5036963;28;1910;-59
2022/10/31 04:58:03;;;;;;;;;;;;;;;12.16;64.32;95756.53;5036974;28;1054;-59
2022/10/31 05:00:29;;;;;;;;;;;;;;;12.17;64.64;95758.19;5036981;28;975;-59
2022/10/31 05:02:55;;;;;;;;;;;;;;;12.18;64.44;95753.66;5036988;28;1009;-59
2022/10/31 05:05:23;;;;;;;;;;;;;;;12.20;64.78;95765.06;5036754;28;1088;-59
2022/10/31 05:07:49;;;;;;;;;;;;;;;12.26;64.37;95754.56;5036765;28;966;-59
2022/10/31 05:10:18;;;;;;;;;;;;;;;12.25;64.44;95766.28;5036690;28;1054;-59
2022/10/31 05:12:47;;;;;;;;;;;;;;;12.28;64.28;95766.00;5036746;28;1290;-58
2022/10/31 05:15:14;;;;;;;;;;;;;;;12.25;64.69;95760.91;5036557;28;1137;-59
2022/10/31 05:17:40;;;;;;;;;;;;;;;12.37;64.75;95766.03;5036319;28;1918;-58
2022/10/31 05:20:06;;;;;;;;;;;;;;;12.33;64.97;95770.03;5036532;28;1049;-59
2022/10/31 05:22:32;;;;;;;;;;;;;;;12.35;65.15;95778.75;5036684;28;1069;-59
2022/10/31 05:24:58;;;;;;;;;;;;;;;12.33;65.26;95770.03;5036726;28;1058;-59
2022/10/31 05:27:24;;;;;;;;;;;;;;;12.42;64.68;95777.13;5036512;28;1005;-59
2022/10/31 05:29:50;;;;;;;;;;;;;;;12.43;64.68;95773.47;5039101;28;1122;-59
2022/10/31 05:32:16;;;;;;;;;;;;;;;12.47;65.07;95777.50;5056243;28;981;-58
2022/10/31 05:34:42;;;;;;;;;;;;;;;12.37;65.22;95782.13;5056152;28;1109;-58
2022/10/31 05:37:08;;;;;;;;;;;;;;;12.44;65.24;95783.19;5056064;28;1909;-58
2022/10/31 05:39:34;;;;;;;;;;;;;;;12.50;65.11;95794.13;5056195;28;1352;-59
2022/10/31 05:42:01;;;;;;;;;;;;;;;12.52;65.17;95788.63;5056081;28;1054;-58
2022/10/31 05:44:27;;;;;;;;;;;;;;;12.61;65.03;95784.97;5055944;28;1034;-58
2022/10/31 05:46:53;;;;;;;;;;;;;;;12.77;64.39;95788.78;5055974;28;1108;-58
2022/10/31 05:49:19;;;;;;;;;;;;;;;12.80;64.38;95800.00;5055879;28;1056;-59
2022/10/31 05:51:45;;;;;;;;;;;;;;;12.87;64.19;95800.22;5054811;28;1215;-59
2022/10/31 05:54:11;;;;;;;;;;;;;;;12.91;64.17;95792.69;5035633;28;1041;-59
2022/10/31 05:56:37;;;;;;;;;;;;;;;12.90;64.03;95799.91;5035720;28;1891;-58
2022/10/31 05:59:03;;;;;;;;;;;;;;;12.92;64.05;95803.28;5035875;28;1070;-59
2022/10/31 06:01:29;;;;;;;;;;;;;;;12.97;64.19;95813.53;5035821;28;1126;-58
2022/10/31 06:03:55;;;;;;;;;;;;;;;13.21;63.31;95805.59;5035790;28;1206;-59
2022/10/31 06:06:21;;;;;;;;;;;;;;;13.75;62.78;95809.81;5035556;28;1050;-59
2022/10/31 06:08:47;;;;;;;;;;;;;;;14.09;60.81;95812.38;5035700;28;1058;-59
2022/10/31 06:11:13;;;;;;;;;;;;;;;14.49;60.50;95810.72;5035708;28;990;-59
2022/10/31 06:13:39;;;;;;;;;;;;;;;14.76;59.53;95811.38;5035586;28;1054;-59
2022/10/31 06:19:47;;;;;;;;;;;;;;;16.32;55.63;95821.50;5029720;28;1182;-59
2022/10/31 06:22:14;;;;;;;;;;;;;;;17.85;50.74;95823.81;5035362;28;1068;-59
2022/10/31 06:24:40;;;;;;;;;;;;;;;20.39;44.96;95842.72;5035438;28;1210;-59
2022/10/31 06:27:06;;;;;;;;;;;;;;;23.60;37.61;95847.81;5035296;28;1053;-59
2022/10/31 06:29:32;;;;;;;;;;;;;;;26.64;32.97;95871.66;5035962;28;1101;-60
2022/10/31 06:31:58;;;;;;;;;;;;;;;28.90;29.30;95886.03;5055204;28;1058;-60
2022/10/31 06:34:24;;;;;;;;;;;;;;;28.58;29.22;95883.22;5055073;28;1046;-60
2022/10/31 06:36:50;;;;;;;;;;;;;;;24.69;34.35;95864.38;5055055;28;2001;-60
2022/10/31 06:39:16;;;;;;;;;;;;;;;21.66;39.83;95834.56;5054876;28;1320;-59
2022/10/31 06:41:42;;;;;;;;;;;;;;;19.77;43.73;95825.63;5055011;28;973;-59
2022/10/31 06:44:08;;;;;;;;;;;;;;;18.75;45.92;95810.75;5054941;28;1065;-58
2022/10/31 06:46:34;;;;;;;;;;;;;;;18.04;47.21;95808.84;5055107;28;1025;-59
2022/10/31 06:49:00;;;;;;;;;;;;;;;17.55;49.06;95813.00;5054840;28;1128;-59
2022/10/31 06:51:26;;;;;;;;;;;;;;;17.37;50.25;95816.09;5054759;28;973;-59
2022/10/31 06:53:52;;;;;;;;;;;;;;;17.21;50.34;95812.75;5036071;28;1147;-59
2022/10/31 06:56:18;;;;;;;;;;;;;;;17.21;51.35;95816.28;5034607;28;1906;-59
2022/10/31 06:58:44;;;;;;;;;;;;;;;17.27;51.10;95814.72;5034784;28;1046;-59
2022/10/31 07:01:10;;;;;;;;;;;;;;;17.20;51.82;95822.72;5017376;28;1034;-59
2022/10/31 07:03:36;;;;;;;;;;;;;;;17.17;52.25;95831.22;5034844;28;930;-59
2022/10/31 07:06:03;;;;;;;;;;;;;;;17.42;51.63;95817.41;5034004;28;1005;-59
2022/10/31 07:08:29;;;;;;;;;;;;;;;17.88;50.57;95825.28;5034297;28;1013;-59
2022/10/31 07:10:55;;;;;;;;;;;;;;;18.13;50.41;95826.59;5034570;28;979;-59
2022/10/31 07:13:25;;;;;;;;;;;;;;;18.27;49.94;95826.78;5034308;28;942;-59
2022/10/31 07:15:52;;;;;;;;;;;;;;;20.76;44.31;95847.84;5034525;28;1997;-59
2022/10/31 07:18:18;;;;;;;;;;;;;;;22.77;39.78;95852.50;5034258;28;1209;-60
2022/10/31 07:20:44;;;;;;;;;;;;;;;23.65;38.47;95847.97;5034501;28;1017;-60
2022/10/31 07:23:11;;;;;;;;;;;;;;;23.08;38.50;95845.34;5034233;28;1066;-60
2022/10/31 07:25:40;;;;;;;;;;;;;;;22.33;40.10;95840.63;5016679;28;1114;-59
2022/10/31 07:28:06;;;;;;;;;;;;;;;24.84;36.22;95857.66;5034392;28;1054;-59
2022/10/31 07:30:32;;;;;;;;;;;;;;;27.58;31.25;95877.66;5042718;28;1116;-59
2022/10/31 07:32:58;;;;;;;;;;;;;;;26.83;32.55;95869.53;5054032;28;1054;-60
2022/10/31 07:35:25;;;;;;;;;;;;;;;25.25;34.57;95865.03;5036287;28;1045;-60
2022/10/31 07:37:52;;;;;;;;;;;;;;;25.40;35.38;95861.81;5053869;28;1986;-60
2022/10/31 07:40:18;;;;;;;;;;;;;;;27.94;31.55;95869.97;5053715;28;1269;-59
2022/10/31 07:42:45;;;;;;;;;;;;;;;31.33;27.10;95890.78;5053839;28;1038;-60
2022/10/31 07:45:12;;;;;;;;;;;;;;;33.44;23.90;95912.34;5053912;28;1022;-60
2022/10/31 07:47:38;;;;;;;;;;;;;;;33.75;23.35;95914.91;5053732;28;931;-60
2022/10/31 07:50:05;;;;;;;;;;;;;;;33.38;23.92;95910.75;5053830;28;1032;-60
2022/10/31 07:52:31;;;;;;;;;;;;;;;33.90;23.45;95903.66;5052370;28;1214;-60
2022/10/31 07:54:57;;;;;;;;;;;;;;;31.77;25.89;95885.84;5053544;28;1127;-60
2022/10/31 07:57:23;;;;;;;;;;;;;;;33.82;24.01;95909.84;5035937;28;1902;-61
2022/10/31 07:59:49;;;;;;;;;;;;;;;34.63;23.04;95910.16;5053706;28;1005;-61
2022/10/31 08:02:15;;;;;;;;;;;;;;;34.04;23.48;95907.44;5053564;28;962;-60
2022/10/31 08:04:41;;;;;;;;;;;;;;;35.15;21.98;95913.09;5053598;28;969;-60
2022/10/31 08:07:07;;;;;;;;;;;;;;;36.83;20.80;95918.91;5053437;28;1054;-60
2022/10/31 08:09:33;;;;;;;;;;;;;;;38.41;19.43;95931.06;5053341;28;1022;-61
2022/10/31 08:11:59;;;;;;;;;;;;;;;36.08;20.79;95898.56;5053634;28;1040;-62
2022/10/31 08:14:25;;;;;;;;;;;;;;;32.59;23.97;95885.69;5053468;28;1068;-62
2022/10/31 08:16:52;;;;;;;;;;;;;;;30.03;27.04;95864.97;5053402;28;2004;-60
2022/10/31 08:19:18;;;;;;;;;;;;;;;29.98;27.31;95851.16;5035267;28;1253;-60
2022/10/31 08:21:44;;;;;;;;;;;;;;;29.61;27.91;95846.47;5053352;28;1009;-59
2022/10/31 08:24:10;;;;;;;;;;;;;;;28.99;28.84;95837.69;5053253;28;973;-59
2022/10/31 08:26:36;;;;;;;;;;;;;;;28.57;29.53;95830.13;5053410;28;975;-60
2022/10/31 08:29:02;;;;;;;;;;;;;;;27.17;31.84;95819.34;5053402;28;1013;-60
2022/10/31 08:31:29;;;;;;;;;;;;;;;26.16;33.37;95807.09;5051924;28;1076;-60
2022/10/31 08:33:55;;;;;;;;;;;;;;;25.28;34.95;95798.03;5053302;28;1001;-60
2022/10/31 08:36:21;;;;;;;;;;;;;;;26.77;33.11;95814.81;5053041;28;1909;-60
2022/10/31 08:38:47;;;;;;;;;;;;;;;30.11;28.19;95828.59;5053069;28;973;-60
2022/10/31 08:41:14;;;;;;;;;;;;;;;29.13;29.97;95826.28;5053116;28;1304;-60
2022/10/31 08:43:40;;;;;;;;;;;;;;;27.31;32.15;95815.19;5053277;28;949;-60
2022/10/31 08:46:06;;;;;;;;;;;;;;;27.49;32.16;95816.88;5053201;28;1202;-60
2022/10/31 08:48:32;;;;;;;;;;;;;;;27.43;31.98;95815.94;5053055;28;938;-60
2022/10/31 08:50:59;;;;;;;;;;;;;;;26.14;33.63;95811.97;5053088;28;1133;-60
2022/10/31 08:53:26;;;;;;;;;;;;;;;25.53;34.77;95808.72;5037800;28;1195;-60
2022/10/31 08:55:54;;;;;;;;;;;;;;;26.58;33.29;95815.00;5033146;28;1906;-60
2022/10/31 08:58:20;;;;;;;;;;;;;;;27.10;33.14;95813.19;5033081;28;1033;-60
2022/10/31 09:00:47;;;;;;;;;;;;;;;26.67;33.33;95810.84;5033132;28;974;-60
2022/10/31 09:03:21;;;;;;;;;;;;;;;25.68;35.19;95798.09;5032968;28;1053;-60
2022/10/31 09:05:47;;;;;;;;;;;;;;;24.80;36.46;95796.28;5033035;28;1029;-60
2022/10/31 09:08:14;;;;;;;;;;;;;;;24.34;37.81;95788.53;5032763;28;1050;-60
2022/10/31 09:10:40;;;;;;;;;;;;;;;24.26;37.63;95797.03;5033308;28;1038;-60
2022/10/31 09:13:08;;;;;;;;;;;;;;;24.24;38.21;95790.97;5033028;28;970;-60
2022/10/31 09:15:36;;;;;;;;;;;;;;;24.38;37.98;95785.31;5032904;28;1065;-60
2022/10/31 09:18:02;;;;;;;;;;;;;;;24.57;37.96;95781.50;5032698;28;1903;-60
2022/10/31 09:20:29;;;;;;;;;;;;;;;24.62;37.36;95781.63;5032724;28;1145;-60
2022/10/31 09:22:56;;;;;;;;;;;;;;;24.82;36.55;95788.69;5032774;28;978;-60
2022/10/31 09:25:24;;;;;;;;;;;;;;;25.11;36.03;95786.91;5032897;28;1105;-59
2022/10/31 09:27:50;;;;;;;;;;;;;;;25.22;36.07;95779.81;5032714;28;1125;-60
2022/10/31 09:30:17;;;;;;;;;;;;;;;25.34;35.76;95783.38;5022925;28;1066;-59
2022/10/31 09:32:43;;;;;;;;;;;;;;;25.87;35.18;95782.34;5056432;28;1049;-60
2022/10/31 09:35:09;;;;;;;;;;;;;;;26.12;34.57;95780.41;5056295;28;1013;-59
2022/10/31 09:37:35;;;;;;;;;;;;;;;26.64;33.78;95786.63;5055979;28;1906;-60
2022/10/31 09:40:01;;;;;;;;;;;;;;;27.46;32.85;95793.47;5056286;28;1292;-60
2022/10/31 09:42:39;;;;;;;;;;;;;;;28.18;31.58;95793.63;5056194;28;971;-60
2022/10/31 09:45:13;;;;;;;;;;;;;;;29.22;30.98;95797.16;5056218;28;978;-60
2022/10/31 09:47:39;;;;;;;;;;;;;;;30.66;28.64;95812.53;5056056;28;1021;-60
2022/10/31 09:50:14;;;;;;;;;;;;;;;31.72;27.64;95809.31;5038565;28;1013;-60
2022/10/31 09:52:54;;;;;;;;;;;;;;;32.32;25.93;95816.88;5047212;28;1128;-61
2022/10/31 09:55:26;;;;;;;;;;;;;;;32.64;25.25;95827.53;5035873;28;1315;-60
2022/10/31 09:57:52;;;;;;;;;;;;;;;32.61;25.07;95825.31;5035816;28;1981;-61
2022/10/31 10:00:20;;;;;;;;;;;;;;;32.36;25.66;95812.41;5035772;28;1009;-61
2022/10/31 10:02:51;;;;;;;;;;;;;;;32.11;25.71;95808.66;5035827;28;1117;-60
2022/10/31 10:05:39;;;;;;;;;;;;;;;31.81;26.30;95802.06;5035914;28;974;-60
2022/10/31 10:08:09;;;;;;;;;;;;;;;31.25;27.07;95797.44;5035882;28;974;-60
2022/10/31 10:10:35;;;;;;;;;;;;;;;30.80;28.04;95790.75;5035739;28;1026;-60
2022/10/31 10:13:31;;;;;;;;;;;;;;;30.40;28.16;95786.00;5035633;28;983;-60
2022/10/31 10:16:33;;;;;;;;;;;;;;;29.83;29.09;95776.63;4982063;28;1909;-60
2022/10/31 10:19:17;;;;;;;;;;;;;;;29.11;30.06;95768.69;4974260;28;1396;-60
2022/10/31 10:21:44;;;;;;;;;;;;;;;28.21;30.44;95769.19;4994500;28;1082;-60
2022/10/31 10:24:17;;;;;;;;;;;;;;;27.26;32.27;95752.81;4996059;28;1034;-60
2022/10/31 10:26:49;;;;;;;;;;;;;;;26.45;33.64;95749.53;4996189;28;985;-60
2022/10/31 10:29:15;;;;;;;;;;;;;;;25.82;34.00;95740.31;4996091;28;1029;-60
2022/10/31 10:31:45;;;;;;;;;;;;;;;25.42;33.80;95739.25;5013375;28;1170;-60
2022/10/31 10:34:16;;;;;;;;;;;;;;;25.11;35.48;95735.75;5015813;28;1025;-60
2022/10/31 10:36:46;;;;;;;;;;;;;;;24.90;36.00;95731.72;5015775;28;1914;-60
2022/10/31 10:39:23;;;;;;;;;;;;;;;24.75;35.84;95723.97;5013947;28;1257;-59
2022/10/31 10:47:39;;;;;;;;;;;;;;;24.49;36.56;95708.00;4995790;28;1041;-59
2022/10/31 10:50:09;;;;;;;;;;;;;;;24.46;36.57;95708.47;4995680;28;1128;-59
2022/10/31 10:52:59;;;;;;;;;;;;;;;24.46;37.23;95703.00;4995366;28;1140;-60
2022/10/31 10:55:27;;;;;;;;;;;;;;;24.43;36.81;95712.50;4995333;28;1092;-60
2022/10/31 10:57:59;;;;;;;;;;;;;;;24.36;36.63;95712.63;4995504;28;1910;-59
2022/10/31 11:00:31;;;;;;;;;;;;;;;24.30;36.87;95720.91;4995413;28;971;-60
2022/10/31 11:02:57;;;;;;;;;;;;;;;24.27;36.36;95708.53;4995347;28;1021;-59
2022/10/31 11:05:24;;;;;;;;;;;;;;;24.21;36.47;95703.16;4995466;28;1041;-60
2022/10/31 11:07:50;;;;;;;;;;;;;;;24.20;36.36;95707.81;4995463;28;1017;-59
2022/10/31 11:10:16;;;;;;;;;;;;;;;24.24;36.71;95708.19;4995300;28;1042;-59
2022/10/31 11:12:44;;;;;;;;;;;;;;;24.24;36.71;95697.25;4995257;28;1041;-59
2022/10/31 11:15:21;;;;;;;;;;;;;;;24.27;36.34;95694.06;4995238;28;974;-59
2022/10/31 11:17:48;;;;;;;;;;;;;;;24.21;36.22;95694.97;4995469;28;1910;-59
2022/10/31 11:20:14;;;;;;;;;;;;;;;24.16;36.72;95693.78;5032633;28;1073;-59
2022/10/31 11:22:44;;;;;;;;;;;;;;;24.14;36.22;95693.19;5034546;28;1049;-59
2022/10/31 11:25:19;;;;;;;;;;;;;;;24.19;36.33;95677.97;5034574;28;970;-59
2022/10/31 11:27:46;;;;;;;;;;;;;;;24.19;36.62;95683.44;5034228;28;1050;-59
2022/10/31 11:30:13;;;;;;;;;;;;;;;24.20;36.75;95682.41;5039835;28;1141;-59
2022/10/31 11:32:46;;;;;;;;;;;;;;;24.19;36.57;95686.19;5054046;28;1187;-59
2022/10/31 11:35:16;;;;;;;;;;;;;;;24.13;36.63;95687.94;5054110;28;1018;-59
2022/10/31 11:37:43;;;;;;;;;;;;;;;24.05;36.19;95683.66;5054061;28;1922;-59
2022/10/31 11:40:20;;;;;;;;;;;;;;;24.02;35.98;95675.09;5053794;28;1260;-59
2022/10/31 11:42:47;;;;;;;;;;;;;;;24.04;36.53;95675.72;5053781;28;1046;-59
2022/10/31 11:45:16;;;;;;;;;;;;;;;24.03;36.68;95684.97;5054025;28;1052;-59
2022/10/31 11:47:44;;;;;;;;;;;;;;;24.05;35.94;95675.47;5053974;28;1122;-59
2022/10/31 11:50:15;;;;;;;;;;;;;;;24.07;36.44;95680.69;5053814;28;971;-59
2022/10/31 11:52:42;;;;;;;;;;;;;;;24.04;36.73;95676.53;5044370;28;1198;-59
2022/10/31 11:55:11;;;;;;;;;;;;;;;24.07;36.93;95676.06;5033804;28;999;-59
2022/10/31 11:57:46;;;;;;;;;;;;;;;24.00;37.13;95675.34;5033561;28;1910;-59
2022/10/31 12:00:27;;;;;;;;;;;;;;;23.99;36.62;95665.47;5033767;28;1042;-59
2022/10/31 12:03:13;;;;;;;;;;;;;;;23.95;37.18;95665.09;5033770;28;962;-59
2022/10/31 12:05:41;;;;;;;;;;;;;;;23.92;37.14;95662.84;5033523;28;1203;-59
2022/10/31 12:08:09;;;;;;;;;;;;;;;23.92;37.06;95667.47;5033481;28;1168;-59
2022/10/31 12:10:49;;;;;;;;;;;;;;;23.89;37.30;95659.75;5033439;28;1267;-59
2022/10/31 12:13:35;;;;;;;;;;;;;;;23.91;36.89;95658.44;5033441;28;1039;-59
2022/10/31 12:16:20;;;;;;;;;;;;;;;23.86;36.95;95655.56;5033462;28;1991;-59
2022/10/31 12:19:06;;;;;;;;;;;;;;;23.89;37.15;95655.13;5033256;28;1081;-59
2022/10/31 12:21:41;;;;;;;;;;;;;;;23.90;36.91;95655.94;5033466;28;1049;-59
2022/10/31 12:24:22;;;;;;;;;;;;;;;23.88;37.11;95660.81;5015982;28;974;-59
2022/10/31 12:27:11;;;;;;;;;;;;;;;23.84;37.27;95656.88;5033239;28;1065;-59
2022/10/31 12:29:40;;;;;;;;;;;;;;;23.78;37.10;95656.72;5034307;28;1064;-59
2022/10/31 12:32:09;;;;;;;;;;;;;;;23.80;37.29;95656.50;5033304;28;1062;-59
2022/10/31 12:34:35;;;;;;;;;;;;;;;23.76;36.82;95660.75;5033316;28;1029;-59
2022/10/31 12:37:04;;;;;;;;;;;;;;;23.69;36.68;95658.09;5033206;28;1934;-59
2022/10/31 12:39:36;;;;;;;;;;;;;;;23.62;37.16;95654.63;5019664;28;1253;-59
2022/10/31 12:42:28;;;;;;;;;;;;;;;23.59;37.65;95655.09;5035613;28;982;-59
2022/10/31 12:45:04;;;;;;;;;;;;;;;23.61;37.06;95647.50;5022676;28;1246;-59
2022/10/31 12:47:30;;;;;;;;;;;;;;;23.57;37.32;95647.13;5053009;28;982;-59
2022/10/31 12:50:01;;;;;;;;;;;;;;;23.52;37.45;95654.34;5053030;28;1044;-59
2022/10/31 12:52:34;;;;;;;;;;;;;;;23.50;37.25;95653.72;5046066;28;1139;-58
2022/10/31 12:55:03;;;;;;;;;;;;;;;23.51;37.21;95658.16;5033215;28;990;-59
2022/10/31 12:57:29;;;;;;;;;;;;;;;23.45;36.76;95651.72;5032982;28;1906;-58
2022/10/31 12:59:58;;;;;;;;;;;;;;;23.44;37.19;95658.22;5033001;28;1306;-58
2022/10/31 13:02:28;;;;;;;;;;;;;;;23.42;36.86;95673.16;5032841;28;974;-58
2022/10/31 13:05:12;;;;;;;;;;;;;;;23.38;36.76;95670.06;5033976;28;1145;-58
2022/10/31 13:07:57;;;;;;;;;;;;;;;23.31;37.61;95664.66;5036851;28;1148;-58
2022/10/31 13:10:34;;;;;;;;;;;;;;;23.27;37.70;95668.91;5036770;28;1034;-58
2022/10/31 13:13:10;;;;;;;;;;;;;;;23.24;37.21;95672.13;5037070;28;1033;-58
2022/10/31 13:15:46;;;;;;;;;;;;;;;23.21;37.49;95671.75;5036796;28;1074;-58